createdAt,value
2022-11-05T12:01:45.649Z,105.80
2022-11-05T12:04:00.872Z,98.75
2022-11-05T12:05:38.776Z,101.00
2022-11-05T12:07:36.879Z,93.00
2022-11-05T12:09:47.540Z,97.25
2022-11-05T12:11:43.545Z,85.50
2022-11-05T12:13:21.452Z,83.25
2022-11-05T12:15:09.908Z,87.25
2022-11-05T12:17:03.725Z,83.50
2022-11-05T12:18:50.487Z,87.25
2022-11-05T12:20:30.155Z,80.75
2022-11-05T12:22:07.565Z,89.00
2022-11-05T12:23:43.560Z,80.00
2022-11-05T12:25:40.555Z,77.50
2022-11-05T12:27:59.709Z,79.00
2022-11-05T12:29:35.965Z,78.00
2022-11-05T12:31:43.546Z,95.25
2022-11-05T12:33:22.271Z,78.25
2022-11-05T12:37:22.772Z,78.00
2022-11-05T12:39:24.269Z,66.50
2022-11-05T12:41:11.069Z,71.50
2022-11-05T12:43:07.750Z,67.75
2022-11-05T12:45:00.825Z,72.50
2022-11-05T12:46:48.181Z,73.50
2022-11-05T12:48:46.365Z,74.75
2022-11-05T12:50:23.030Z,81.50
2022-11-05T12:52:06.477Z,79.50
2022-11-05T12:54:03.147Z,77.75
2022-11-05T12:55:41.705Z,91.75
2022-11-05T12:57:16.145Z,88.25
2022-11-05T12:59:01.941Z,85.00
2022-11-05T13:00:33.741Z,83.50
2022-11-05T13:02:28.749Z,94.25
2022-11-05T13:04:08.948Z,90.25
2022-11-05T13:05:42.207Z,82.00
2022-11-05T13:07:15.630Z,84.75
2022-11-05T13:08:52.971Z,102.25
2022-11-05T13:10:41.166Z,98.50
2022-11-05T13:12:17.523Z,97.00
2022-11-05T13:14:20.203Z,110.20
2022-11-05T13:16:04.510Z,102.50
2022-11-05T13:17:43.637Z,104.75
2022-11-05T13:19:32.273Z,109.60
2022-11-05T13:21:05.563Z,113.00
2022-11-05T13:22:48.123Z,98.75
2022-11-05T13:24:25.234Z,117.20
2022-11-05T13:26:03.307Z,114.40
2022-11-05T13:27:58.223Z,118.40
2022-11-05T13:29:41.314Z,128.40
2022-11-05T13:31:18.001Z,134.25
2022-11-05T13:32:56.086Z,126.75
2022-11-05T13:34:29.473Z,141.50
2022-11-05T13:36:28.888Z,149.25
2022-11-05T13:38:23.268Z,146.75
2022-11-05T13:39:58.972Z,144.50
2022-11-05T13:41:40.765Z,144.25
2022-11-05T13:43:24.067Z,143.75
2022-11-05T13:45:01.468Z,139.50
2022-11-05T13:47:08.325Z,132.75
2022-11-05T13:49:02.613Z,144.25
2022-11-05T13:50:46.128Z,137.50
2022-11-05T13:52:40.218Z,125.00
2022-11-05T13:54:35.620Z,114.20
2022-11-05T13:56:28.377Z,116.00
2022-11-05T13:58:14.915Z,118.60
2022-11-05T14:00:24.675Z,109.40
2022-11-05T14:02:00.521Z,117.00
2022-11-05T14:03:32.754Z,110.00
2022-11-05T14:05:05.151Z,114.40
2022-11-05T14:06:37.368Z,110.00
2022-11-05T14:08:11.589Z,110.75
2022-11-05T14:09:44.004Z,100.25
2022-11-05T14:11:16.042Z,106.20
2022-11-05T14:12:50.719Z,111.00
2022-11-05T14:14:30.688Z,97.75
2022-11-05T14:16:08.047Z,103.75
2022-11-05T14:18:00.559Z,96.75
2022-11-05T14:19:37.100Z,95.25
2022-11-05T14:21:30.673Z,99.50
2022-11-05T14:23:21.135Z,95.50
2022-11-05T14:24:53.572Z,90.25
2022-11-05T14:26:29.639Z,89.25
2022-11-05T14:28:01.417Z,92.75
2022-11-05T14:29:46.415Z,90.00
2022-11-05T14:31:18.244Z,83.25
2022-11-05T14:32:51.079Z,87.50
2022-11-05T14:34:41.224Z,84.00
2022-11-05T14:36:22.415Z,80.00
2022-11-05T14:37:58.825Z,78.75
2022-11-05T14:39:31.026Z,76.75
2022-11-05T14:41:02.919Z,76.25
2022-11-05T14:42:34.801Z,80.00
2022-11-05T14:44:06.832Z,78.25
2022-11-05T14:45:39.591Z,82.50
2022-11-05T14:47:19.897Z,84.50
2022-11-05T14:49:05.129Z,93.25
2022-11-05T14:50:41.805Z,102.00
2022-11-05T14:52:13.815Z,90.25
2022-11-05T14:53:45.472Z,101.75
2022-11-05T14:55:36.641Z,107.00
2022-11-05T14:57:33.540Z,112.75
2022-11-05T14:59:34.964Z,109.75
2022-11-05T15:01:27.443Z,112.80
2022-11-05T15:03:01.583Z,114.60
2022-11-05T15:04:35.932Z,110.00
2022-11-05T15:06:28.769Z,113.60
2022-11-05T15:08:00.990Z,118.40
2022-11-05T15:09:35.447Z,117.60
2022-11-05T15:11:18.749Z,118.00
2022-11-05T15:13:02.270Z,115.20
2022-11-05T15:15:01.089Z,127.40
2022-11-05T15:16:49.227Z,124.80
2022-11-05T15:18:33.637Z,121.20
2022-11-05T15:20:17.994Z,124.00
2022-11-05T15:21:50.305Z,114.80
2022-11-05T15:23:24.793Z,112.00
2022-11-05T15:24:56.841Z,115.80
2022-11-05T15:26:40.564Z,111.20
2022-11-05T15:28:41.439Z,113.50
2022-11-05T15:30:21.642Z,106.00
2022-11-05T15:31:53.340Z,105.75
2022-11-05T15:33:25.061Z,112.75
2022-11-05T15:34:56.853Z,107.50
2022-11-05T15:36:30.358Z,116.80
2022-11-05T15:38:02.839Z,124.00
2022-11-05T15:39:47.753Z,119.20
2022-11-05T15:41:34.566Z,125.25
2022-11-05T15:43:17.479Z,264.00
2022-11-05T15:44:50.821Z,265.67
2022-11-05T15:46:30.148Z,269.33
2022-11-05T15:48:01.985Z,257.33
2022-11-05T15:49:33.798Z,249.33
2022-11-05T15:51:05.695Z,179.50
2022-11-05T15:52:47.905Z,191.00
2022-11-05T15:54:35.449Z,166.75
2022-11-05T15:56:24.213Z,165.50
2022-11-05T15:58:06.973Z,178.00
2022-11-05T15:59:38.690Z,159.00
2022-11-05T16:01:22.637Z,141.50
2022-11-05T16:02:59.703Z,143.25
2022-11-05T16:04:33.163Z,128.00
2022-11-05T16:06:07.210Z,132.50
2022-11-05T16:07:43.961Z,130.25
2022-11-05T16:09:32.271Z,127.25
2022-11-05T16:11:04.160Z,144.00
2022-11-05T16:12:36.995Z,138.50
2022-11-05T16:14:16.441Z,134.50
2022-11-05T16:15:55.820Z,131.25
2022-11-05T16:17:31.672Z,141.25
2022-11-05T16:19:40.083Z,126.75
2022-11-05T16:21:18.281Z,146.50
2022-11-05T16:22:52.182Z,132.25
2022-11-05T16:24:29.213Z,130.25
2022-11-05T16:26:01.595Z,131.50
2022-11-05T16:27:33.422Z,116.50
2022-11-05T16:29:15.450Z,134.75
2022-11-05T16:31:01.315Z,125.00
2022-11-05T16:32:33.052Z,127.25
2022-11-05T16:34:04.864Z,133.50
2022-11-05T16:35:38.905Z,121.25
2022-11-05T16:37:12.808Z,108.60
2022-11-05T16:38:44.767Z,130.80
2022-11-05T16:40:24.194Z,105.40
2022-11-05T16:41:56.188Z,119.00
2022-11-05T16:43:28.402Z,107.20
2022-11-05T16:45:00.193Z,120.40
2022-11-05T16:46:32.657Z,106.40
2022-11-05T16:48:04.819Z,93.25
2022-11-05T16:49:38.641Z,100.00
2022-11-05T16:51:12.944Z,112.25
2022-11-05T16:52:45.890Z,99.00
2022-11-05T16:54:17.684Z,97.50
2022-11-05T16:55:49.468Z,104.00
2022-11-05T16:57:31.112Z,136.25
2022-11-05T16:59:03.036Z,120.25
2022-11-05T17:00:35.166Z,110.20
2022-11-05T17:02:10.850Z,102.75
2022-11-05T17:03:42.936Z,109.00
2022-11-05T17:05:32.463Z,108.20
2022-11-05T17:07:04.755Z,116.60
2022-11-05T17:08:36.580Z,122.60
2022-11-05T17:10:08.520Z,120.40
2022-11-05T17:11:40.509Z,112.40
2022-11-05T17:13:17.098Z,117.00
2022-11-05T17:14:49.010Z,115.00
2022-11-05T17:16:20.906Z,122.20
2022-11-05T17:17:53.248Z,118.40
2022-11-05T17:19:25.057Z,126.20
2022-11-05T17:20:57.271Z,117.80
2022-11-05T17:22:29.363Z,119.60
2022-11-05T17:24:01.695Z,117.20
2022-11-05T17:25:33.821Z,123.40
2022-11-05T17:27:05.732Z,117.00
2022-11-05T17:28:37.909Z,120.60
2022-11-05T17:30:10.821Z,110.80
2022-11-05T17:31:42.528Z,108.60
2022-11-05T17:33:14.947Z,121.40
2022-11-05T17:34:46.835Z,120.40
2022-11-05T17:36:18.470Z,180.00
2022-11-05T17:37:50.422Z,123.75
2022-11-05T17:39:24.906Z,117.00
2022-11-05T17:40:59.118Z,131.25
2022-11-05T17:42:30.823Z,136.25
2022-11-05T17:44:02.573Z,139.75
2022-11-05T17:45:34.632Z,134.00
2022-11-05T17:47:06.381Z,143.00
2022-11-05T17:48:38.387Z,152.50
2022-11-05T17:50:11.251Z,127.00
2022-11-05T17:51:42.901Z,127.00
2022-11-05T17:53:15.424Z,146.25
2022-11-05T17:54:47.275Z,134.25
2022-11-05T17:56:30.540Z,131.50
2022-11-05T17:58:05.477Z,117.60
2022-11-05T17:59:37.332Z,127.60
2022-11-05T18:01:09.550Z,110.40
2022-11-05T18:02:41.379Z,112.80
2022-11-05T18:04:13.128Z,120.40
2022-11-05T18:05:45.033Z,116.80
2022-11-05T18:07:16.952Z,108.20
2022-11-05T18:08:48.787Z,110.00
2022-11-05T18:10:20.583Z,112.25
2022-11-05T18:11:52.238Z,114.20
2022-11-05T18:13:24.557Z,103.20
2022-11-05T18:14:56.276Z,113.40
2022-11-05T18:16:28.055Z,116.20
2022-11-05T18:17:59.757Z,97.60
2022-11-05T18:19:31.607Z,117.60
2022-11-05T18:21:03.360Z,107.50
2022-11-05T18:22:36.342Z,118.00
2022-11-05T18:24:08.136Z,115.80
2022-11-05T18:25:40.832Z,118.25
2022-11-05T18:27:12.709Z,116.80
2022-11-05T18:28:44.472Z,128.25
2022-11-05T18:30:16.248Z,245.00
2022-11-05T18:31:48.438Z,334.00
2022-11-05T18:33:20.242Z,310.50
2022-11-05T18:34:52.006Z,212.67
2022-11-05T18:36:28.201Z,208.33
2022-11-05T18:37:59.883Z,204.25
2022-11-05T18:39:31.581Z,192.00
2022-11-05T18:41:06.746Z,167.25
2022-11-05T18:42:38.546Z,184.75
2022-11-05T18:44:15.058Z,172.75
2022-11-05T18:45:54.777Z,173.75
2022-11-05T18:47:26.418Z,171.25
2022-11-05T18:48:59.159Z,159.00
2022-11-05T18:50:30.993Z,144.00
2022-11-05T18:52:03.370Z,159.50
2022-11-05T18:53:35.063Z,159.00
2022-11-05T18:55:07.411Z,152.50
2022-11-05T18:56:45.808Z,157.75
2022-11-05T18:58:18.404Z,147.00
2022-11-05T18:59:50.265Z,143.25
2022-11-05T19:01:26.676Z,145.75
2022-11-05T19:02:59.026Z,132.50
2022-11-05T19:04:31.561Z,129.50
2022-11-05T19:06:04.304Z,139.00
2022-11-05T19:07:37.485Z,149.75
2022-11-05T19:09:12.370Z,145.25
2022-11-05T19:10:49.744Z,164.75
2022-11-05T19:12:21.613Z,148.00
2022-11-05T19:13:53.447Z,135.75
2022-11-05T19:15:25.174Z,155.75
2022-11-05T19:16:57.648Z,149.50
2022-11-05T19:18:29.370Z,142.50
2022-11-05T19:20:01.233Z,148.50
2022-11-05T19:21:33.999Z,138.25
2022-11-05T19:23:06.494Z,140.75
2022-11-05T19:24:38.678Z,160.50
2022-11-05T19:26:18.365Z,149.25
2022-11-05T19:27:50.121Z,154.25
2022-11-05T19:29:22.121Z,168.75
2022-11-05T19:30:53.820Z,169.00
2022-11-05T19:32:26.399Z,163.25
2022-11-05T19:33:58.213Z,160.75
2022-11-05T19:35:30.727Z,159.50
2022-11-05T19:37:03.015Z,155.00
2022-11-05T19:38:34.927Z,179.50
2022-11-05T19:40:07.534Z,164.75
2022-11-05T19:41:39.333Z,173.25
2022-11-05T19:43:11.264Z,157.00
2022-11-05T19:44:43.824Z,161.50
2022-11-05T19:46:19.204Z,160.25
2022-11-05T19:47:50.916Z,186.50
2022-11-05T19:49:23.273Z,168.00
2022-11-05T19:50:55.549Z,175.75
2022-11-05T19:52:27.299Z,161.75
2022-11-05T19:54:00.544Z,172.75
2022-11-05T19:55:32.384Z,174.00
2022-11-05T19:57:04.240Z,178.00
2022-11-05T19:58:35.915Z,165.25
2022-11-05T20:00:08.300Z,175.50
2022-11-05T20:01:42.589Z,189.50
2022-11-05T20:03:14.713Z,176.00
2022-11-05T20:04:46.790Z,170.50
2022-11-05T20:06:32.132Z,165.75
2022-11-05T20:08:04.320Z,150.75
2022-11-05T20:09:35.982Z,168.50
2022-11-05T20:11:07.731Z,157.50
2022-11-05T20:12:39.472Z,170.50
2022-11-05T20:14:11.301Z,156.75
2022-11-05T20:15:42.985Z,192.75
2022-11-05T20:17:14.943Z,207.00
2022-11-05T20:18:46.688Z,172.50
2022-11-05T20:20:18.967Z,169.75
2022-11-05T20:21:50.723Z,180.00
2022-11-05T20:23:22.430Z,163.50
2022-11-05T20:24:54.198Z,173.75
2022-11-05T20:26:26.703Z,167.25
2022-11-05T20:27:58.484Z,147.50
2022-11-05T20:29:35.322Z,166.25
2022-11-05T20:31:11.718Z,163.50
2022-11-05T20:32:43.406Z,160.50
2022-11-05T20:34:15.762Z,144.50
2022-11-05T20:35:48.618Z,157.25
2022-11-05T20:37:20.760Z,160.25
2022-11-05T20:38:55.399Z,149.75
2022-11-05T20:40:27.750Z,158.75
2022-11-05T20:42:00.610Z,160.75
2022-11-05T20:43:32.626Z,152.25
2022-11-05T20:45:04.924Z,159.00
2022-11-05T20:46:36.718Z,166.50
2022-11-05T20:48:08.344Z,170.75
2022-11-05T20:49:40.060Z,155.00
2022-11-05T20:51:14.125Z,161.50
2022-11-05T20:52:45.830Z,158.25
2022-11-05T20:54:18.238Z,143.75
2022-11-05T20:55:50.085Z,145.00
2022-11-05T20:57:22.406Z,169.00
2022-11-05T20:58:54.571Z,165.75
2022-11-05T21:00:26.284Z,163.00
2022-11-05T21:01:58.065Z,157.50
2022-11-05T21:03:29.893Z,166.25
2022-11-05T21:05:02.407Z,159.00
2022-11-05T21:06:35.908Z,155.75
2022-11-05T21:08:07.606Z,150.25
2022-11-05T21:09:39.358Z,162.50
2022-11-05T21:11:11.292Z,148.50
2022-11-05T21:12:43.052Z,152.25
2022-11-05T21:14:14.781Z,160.75
2022-11-05T21:15:50.734Z,158.75
2022-11-05T21:17:22.429Z,132.25
2022-11-05T21:18:54.141Z,133.00
2022-11-05T21:20:25.923Z,168.25
2022-11-05T21:21:57.627Z,154.25
2022-11-05T21:23:29.338Z,155.75
2022-11-05T21:25:01.049Z,145.25
2022-11-05T21:26:33.669Z,167.25
2022-11-05T21:28:06.234Z,149.50
2022-11-05T21:29:37.937Z,161.75
2022-11-05T21:31:09.865Z,157.00
2022-11-05T21:32:41.574Z,151.25
2022-11-05T21:34:13.355Z,161.50
2022-11-05T21:35:46.607Z,166.00
2022-11-05T21:37:18.255Z,145.00
2022-11-05T21:38:49.938Z,165.00
2022-11-05T21:40:21.887Z,150.50
2022-11-05T21:41:54.144Z,159.75
2022-11-05T21:43:25.851Z,153.50
2022-11-05T21:45:00.392Z,161.50
2022-11-05T21:46:32.554Z,155.00
2022-11-05T21:48:04.492Z,142.50
2022-11-05T21:49:36.327Z,166.75
2022-11-05T21:51:28.710Z,159.00
2022-11-05T21:53:19.091Z,156.25
2022-11-05T21:55:09.203Z,156.75
2022-11-05T21:56:59.501Z,162.75
2022-11-05T21:58:49.814Z,164.50
2022-11-05T22:00:21.615Z,169.25
2022-11-05T22:02:01.373Z,155.50
2022-11-05T22:03:33.417Z,155.75
2022-11-05T22:05:05.737Z,162.50
2022-11-05T22:06:37.459Z,170.25
2022-11-05T22:08:09.536Z,162.50
2022-11-05T22:09:41.464Z,159.25
2022-11-05T22:11:13.118Z,144.75
2022-11-05T22:12:45.217Z,154.25
2022-11-05T22:14:16.951Z,155.75
2022-11-05T22:15:55.669Z,144.00
2022-11-05T22:17:27.382Z,147.00
2022-11-05T22:18:59.226Z,147.50
2022-11-05T22:20:30.882Z,148.00
2022-11-05T22:22:03.806Z,146.50
2022-11-05T22:23:35.532Z,135.25
2022-11-05T22:25:09.469Z,136.75
2022-11-05T22:26:41.938Z,162.75
2022-11-05T22:28:13.937Z,150.00
2022-11-05T22:29:46.225Z,132.25
2022-11-05T22:31:17.896Z,141.50
2022-11-05T22:32:49.851Z,132.25
2022-11-05T22:34:21.853Z,134.25
2022-11-05T22:35:53.955Z,138.50
2022-11-05T22:37:25.872Z,130.75
2022-11-05T22:38:57.611Z,132.00
2022-11-05T22:40:29.275Z,128.00
2022-11-05T22:42:05.588Z,142.75
2022-11-05T22:43:39.905Z,116.75
2022-11-05T22:45:11.813Z,119.40
2022-11-05T22:46:43.656Z,104.20
2022-11-05T22:48:15.823Z,100.25
2022-11-05T22:49:49.476Z,112.40
2022-11-05T22:51:22.740Z,106.80
2022-11-05T22:52:54.582Z,108.80
2022-11-05T22:54:26.436Z,103.80
2022-11-05T22:55:58.289Z,108.00
2022-11-05T22:57:30.002Z,115.20
2022-11-05T22:59:01.977Z,123.00
2022-11-05T23:00:35.829Z,120.20
2022-11-05T23:02:09.983Z,109.00
2022-11-05T23:03:43.088Z,116.80
2022-11-05T23:05:15.890Z,116.40
2022-11-05T23:07:06.416Z,112.20
2022-11-05T23:08:57.127Z,113.20
2022-11-05T23:10:47.247Z,101.40
2022-11-05T23:12:22.421Z,118.60
2022-11-05T23:13:55.978Z,111.40
2022-11-05T23:15:46.376Z,120.80
2022-11-05T23:17:36.514Z,120.60
2022-11-05T23:19:27.791Z,125.75
2022-11-05T23:21:21.964Z,129.60
2022-11-05T23:23:13.299Z,124.75
2022-11-05T23:24:44.919Z,119.25
2022-11-05T23:26:35.328Z,118.60
2022-11-05T23:28:08.057Z,129.80
2022-11-05T23:29:39.805Z,117.00
2022-11-05T23:31:30.348Z,119.00
2022-11-05T23:33:02.080Z,121.40
2022-11-05T23:34:33.724Z,121.00
